Hauptseite
METAR-TAF:

METAR-TAF

Flughäfen :

Flughafen Auckland

Auckland, Neuseeland

Breite: 37-01S, Länge: 174-48E, Höhe: 7 m

Beobachtung

Neuester Wetterbericht von vor 22 Minuten, um 04:30 UTC
Wind 17 kt aus Südwest
Temperatur 23°C
Luftfeuchtigkeit 69%
Luftdruck 1006 hPa
Sichtweite 10 km oder mehr

METAR: NZAA 160430Z AUTO 23017KT 9999 NCD 23/17 Q1006 NOSIG

Zeit: 17:52 (04:52 UTC)

Prognose

Neuester Wetterbericht von vor 5 Stunden und 42 Minuten, um 23:10 UTC
Gültige Prognose vom 16 um 00 UTC bis 17 um 00 UTC
Wind 15 kt aus Südwest
Sichtweite 10 km oder mehr
Aufgelockert bewölkt in der Höhe von 2000 ft
Regenschauer
Ab 16 um 0800 UTC
Wind 5 kt aus Südwest
Sichtweite 10 km oder mehr
Durchbrochene Bewölkung in der Höhe von 2000 ft
Übergehend zu
vom 16 um 21 UTC bis 16 um 23 UTC
Wind 15 kt aus Südwest

TAF: NZAA 152310Z 1600/1700 22015KT 9999 -SHRA SCT020 FM160800 22005KT 9999 BKN020 BECMG 1621/1623 22015KT

Wetterbeobachtungen und Prognosen von mehr als 4000 Flughäfen (METAR und TAF Bericht).

Die verfügbaren Stationen werden durch gelbe und rote Markierungen auf der Karte dargestellt.

Führen Sie die Maus auf sie, um den Namen der Station zu sehen.

Darauf klicken, um die Beobachtung von Wetterbeobachtungen und Prognosen zu sehen.

Um die Karte zu ändern : klicken Sie auf den grünen Tasten mit einem schwarzen Kreuz Zum Vergrößern, auf den grünen Button mit einem Gedankenstrich zu verkleinern, oder auf die grünen Pfeile für benachbarte Karten.


METAR-TAF: